Time;durP1;ratioP1;P1;durP2;ratioP2;P2;SDS_P1;SDS_P2;PMS_P1;PMS_P2;Temp;Humidity;BMP_temperature;BMP_pressure;BME280_temperature;BME280_humidity;BME280_pressure;Samples;Min_cycle;Max_cycle;Signal;HPM_P1;HPM_P2
2021/08/29 00:01:40;;;;;;;22.53;20.33;;;;;;;;;;5036502;28;20422;-84
2021/08/29 00:04:08;;;;;;;20.67;19.13;;;;;;;;;;5036020;28;20431;-85
2021/08/29 00:06:35;;;;;;;22.57;20.53;;;;;;;;;;5035856;28;20441;-85
2021/08/29 00:09:04;;;;;;;24.77;22.33;;;;;;;;;;5035419;28;20486;-85
2021/08/29 00:11:33;;;;;;;23.67;21.57;;;;;;;;;;5035209;28;20432;-85
2021/08/29 00:14:00;;;;;;;22.13;20.23;;;;;;;;;;5035235;28;20436;-85
2021/08/29 00:16:28;;;;;;;23.77;21.57;;;;;;;;;;5035228;28;20407;-84
2021/08/29 00:18:55;;;;;;;24.33;22.03;;;;;;;;;;5035423;28;20514;-84
2021/08/29 00:21:23;;;;;;;30.60;24.40;;;;;;;;;;5035045;28;20432;-85
2021/08/29 00:23:50;;;;;;;26.23;23.83;;;;;;;;;;5035842;28;20909;-85
2021/08/29 00:26:17;;;;;;;28.23;25.30;;;;;;;;;;5034899;28;20929;-84
2021/08/29 00:28:46;;;;;;;26.03;23.83;;;;;;;;;;5035110;28;20495;-85
2021/08/29 00:31:14;;;;;;;28.40;25.57;;;;;;;;;;5035035;28;20429;-85
2021/08/29 00:33:41;;;;;;;28.87;25.67;;;;;;;;;;5034838;28;20486;-85
2021/08/29 00:36:08;;;;;;;30.60;26.90;;;;;;;;;;5035857;28;20455;-84
2021/08/29 00:38:36;;;;;;;28.10;25.37;;;;;;;;;;5034782;28;20410;-85
2021/08/29 00:41:06;;;;;;;24.73;22.43;;;;;;;;;;5034837;28;20798;-85
2021/08/29 00:43:34;;;;;;;25.63;23.23;;;;;;;;;;5033540;28;20783;-85
2021/08/29 00:46:02;;;;;;;29.50;26.40;;;;;;;;;;5035046;28;20423;-85
2021/08/29 00:48:30;;;;;;;31.63;25.50;;;;;;;;;;5036561;28;20968;-85
2021/08/29 00:50:57;;;;;;;25.43;22.97;;;;;;;;;;5038519;28;20410;-85
2021/08/29 00:53:25;;;;;;;26.77;23.97;;;;;;;;;;5038945;28;20406;-85
2021/08/29 00:55:53;;;;;;;32.30;24.57;;;;;;;;;;5038394;28;20421;-85
2021/08/29 00:58:21;;;;;;;24.67;22.47;;;;;;;;;;5038695;28;20419;-85
2021/08/29 01:00:49;;;;;;;24.57;22.27;;;;;;;;;;5038842;28;20512;-85
2021/08/29 01:03:21;;;;;;;23.80;21.33;;;;;;;;;;5038734;28;20402;-85
2021/08/29 01:05:53;;;;;;;26.80;24.07;;;;;;;;;;5039563;28;20794;-84
2021/08/29 01:08:20;;;;;;;24.03;21.63;;;;;;;;;;5038490;28;20497;-85
2021/08/29 01:10:49;;;;;;;24.80;22.57;;;;;;;;;;5037461;28;20511;-85
2021/08/29 01:13:20;;;;;;;23.07;20.97;;;;;;;;;;5038021;28;20861;-84
2021/08/29 01:15:48;;;;;;;26.50;23.10;;;;;;;;;;5038395;28;20446;-85
2021/08/29 01:18:17;;;;;;;25.50;22.90;;;;;;;;;;5038540;28;20461;-85
2021/08/29 01:20:53;;;;;;;25.67;23.27;;;;;;;;;;5036737;28;20441;-85
2021/08/29 01:23:23;;;;;;;23.30;21.40;;;;;;;;;;5037696;28;20446;-85
2021/08/29 01:25:54;;;;;;;23.83;21.70;;;;;;;;;;5037070;28;20444;-85
2021/08/29 01:28:24;;;;;;;24.50;22.03;;;;;;;;;;5037587;28;20969;-85
2021/08/29 01:30:54;;;;;;;26.40;23.60;;;;;;;;;;5038894;28;20763;-85
2021/08/29 01:33:22;;;;;;;23.70;21.30;;;;;;;;;;5037896;28;20450;-85
2021/08/29 01:35:49;;;;;;;22.07;20.00;;;;;;;;;;5037866;28;20814;-85
2021/08/29 01:38:17;;;;;;;22.53;20.53;;;;;;;;;;5036443;28;20411;-85
2021/08/29 01:40:45;;;;;;;23.37;21.10;;;;;;;;;;5037968;28;20423;-85
2021/08/29 01:43:13;;;;;;;25.60;23.30;;;;;;;;;;5037546;28;20433;-85
2021/08/29 01:45:41;;;;;;;23.97;21.77;;;;;;;;;;5037473;28;20415;-85
2021/08/29 01:48:10;;;;;;;22.17;20.20;;;;;;;;;;5037005;28;20455;-85
2021/08/29 01:50:37;;;;;;;23.20;20.83;;;;;;;;;;5037583;28;20527;-85
2021/08/29 01:53:05;;;;;;;21.53;19.73;;;;;;;;;;5037738;28;20421;-85
2021/08/29 01:55:33;;;;;;;22.80;20.80;;;;;;;;;;5037809;28;20426;-85
2021/08/29 01:58:00;;;;;;;26.00;22.70;;;;;;;;;;5036785;28;20405;-85
2021/08/29 02:00:28;;;;;;;26.00;23.33;;;;;;;;;;5037217;28;20446;-85
2021/08/29 02:02:55;;;;;;;23.70;21.70;;;;;;;;;;5036987;28;20774;-85
2021/08/29 02:05:24;;;;;;;20.43;18.80;;;;;;;;;;5037445;28;20426;-85
2021/08/29 02:07:52;;;;;;;21.43;19.20;;;;;;;;;;5037270;28;21005;-85
2021/08/29 02:10:24;;;;;;;23.70;21.60;;;;;;;;;;5037177;28;20483;-83
2021/08/29 02:12:55;;;;;;;25.20;22.60;;;;;;;;;;5037083;28;20418;-85
2021/08/29 02:15:24;;;;;;;22.20;19.90;;;;;;;;;;5036656;28;20445;-85
2021/08/29 02:17:52;;;;;;;23.30;21.03;;;;;;;;;;5036115;28;20522;-85
2021/08/29 02:20:22;;;;;;;25.97;23.27;;;;;;;;;;5037300;28;20440;-85
2021/08/29 02:22:51;;;;;;;23.03;20.80;;;;;;;;;;5036839;28;20432;-85
2021/08/29 02:25:18;;;;;;;23.73;21.70;;;;;;;;;;5037755;28;20791;-85
2021/08/29 02:27:46;;;;;;;22.00;20.20;;;;;;;;;;5036579;28;20406;-85
2021/08/29 02:30:14;;;;;;;21.87;20.10;;;;;;;;;;5036585;28;20812;-85
2021/08/29 02:32:42;;;;;;;23.17;20.97;;;;;;;;;;5036520;28;20459;-84
2021/08/29 02:35:10;;;;;;;22.90;20.77;;;;;;;;;;5038108;28;20876;-85
2021/08/29 02:37:39;;;;;;;24.90;22.30;;;;;;;;;;5036462;28;20407;-85
2021/08/29 02:40:10;;;;;;;30.90;23.90;;;;;;;;;;5036451;28;20410;-85
2021/08/29 02:42:37;;;;;;;23.13;20.90;;;;;;;;;;5037394;28;20438;-84
2021/08/29 02:45:07;;;;;;;23.20;20.90;;;;;;;;;;5019181;28;20425;-84
2021/08/29 02:47:38;;;;;;;23.83;21.40;;;;;;;;;;5037202;28;20421;-85
2021/08/29 02:50:06;;;;;;;23.40;21.23;;;;;;;;;;5036705;28;20884;-84
2021/08/29 02:52:34;;;;;;;22.20;20.10;;;;;;;;;;5037980;28;20840;-85
2021/08/29 02:55:02;;;;;;;24.50;22.03;;;;;;;;;;5037757;28;20450;-84
2021/08/29 02:57:35;;;;;;;22.40;20.13;;;;;;;;;;5039036;28;20476;-85
2021/08/29 03:00:02;;;;;;;21.60;19.80;;;;;;;;;;5035950;28;20421;-85
2021/08/29 03:02:30;;;;;;;24.73;21.57;;;;;;;;;;5035668;28;20429;-85
2021/08/29 03:04:57;;;;;;;23.07;21.07;;;;;;;;;;5037014;28;20410;-85
2021/08/29 03:07:25;;;;;;;21.73;19.60;;;;;;;;;;5037285;28;20472;-85
2021/08/29 03:09:53;;;;;;;18.30;16.90;;;;;;;;;;5036404;28;20815;-85
2021/08/29 03:12:21;;;;;;;18.90;17.40;;;;;;;;;;5035500;28;20938;-85
2021/08/29 03:14:50;;;;;;;20.10;18.33;;;;;;;;;;5036924;28;20435;-85
2021/08/29 03:17:17;;;;;;;21.80;19.90;;;;;;;;;;5036673;28;20456;-85
2021/08/29 03:19:45;;;;;;;20.23;18.23;;;;;;;;;;5035279;28;20427;-85
2021/08/29 03:22:13;;;;;;;21.37;19.20;;;;;;;;;;5036329;28;20414;-85
2021/08/29 03:24:41;;;;;;;20.07;18.47;;;;;;;;;;5035813;28;20442;-85
2021/08/29 03:27:09;;;;;;;21.53;19.73;;;;;;;;;;5036154;28;20437;-85
2021/08/29 03:29:36;;;;;;;20.50;18.80;;;;;;;;;;5035492;28;20515;-85
2021/08/29 03:32:06;;;;;;;25.20;21.97;;;;;;;;;;5017922;28;20458;-85
2021/08/29 03:34:36;;;;;;;21.30;19.50;;;;;;;;;;5035694;28;20446;-85
2021/08/29 03:37:04;;;;;;;20.97;19.27;;;;;;;;;;5037091;28;20489;-85
2021/08/29 03:39:32;;;;;;;20.60;18.97;;;;;;;;;;5035461;28;20444;-85
2021/08/29 03:42:00;;;;;;;21.47;19.63;;;;;;;;;;5036178;28;20433;-85
2021/08/29 03:44:28;;;;;;;20.30;18.67;;;;;;;;;;5035185;28;20872;-85
2021/08/29 03:46:56;;;;;;;21.30;19.50;;;;;;;;;;5036104;28;20459;-85
2021/08/29 03:49:25;;;;;;;21.60;19.40;;;;;;;;;;5035223;28;20478;-85
2021/08/29 03:51:53;;;;;;;22.43;20.10;;;;;;;;;;5034926;28;20418;-85
2021/08/29 03:54:20;;;;;;;21.13;19.30;;;;;;;;;;5035349;28;20418;-85
2021/08/29 03:56:48;;;;;;;19.83;18.30;;;;;;;;;;5034894;28;20475;-85
2021/08/29 03:59:16;;;;;;;21.50;19.50;;;;;;;;;;5034680;28;20411;-85
2021/08/29 04:01:43;;;;;;;20.30;18.60;;;;;;;;;;5034889;28;20452;-85
2021/08/29 04:04:11;;;;;;;20.33;18.73;;;;;;;;;;5034731;28;20418;-85
2021/08/29 04:06:40;;;;;;;21.33;19.63;;;;;;;;;;5033473;28;20806;-86
2021/08/29 04:09:08;;;;;;;22.23;20.30;;;;;;;;;;5039358;28;20414;-85
2021/08/29 04:11:37;;;;;;;21.73;19.67;;;;;;;;;;5034035;28;20493;-86
2021/08/29 04:14:05;;;;;;;23.23;21.17;;;;;;;;;;5034174;28;20432;-85
2021/08/29 04:16:35;;;;;;;22.67;20.77;;;;;;;;;;5035376;28;20458;-86
2021/08/29 04:19:03;;;;;;;21.63;19.83;;;;;;;;;;5033179;28;20443;-86
2021/08/29 04:21:31;;;;;;;21.07;19.20;;;;;;;;;;5033969;28;20446;-85
2021/08/29 04:24:00;;;;;;;24.20;21.80;;;;;;;;;;5034382;28;20772;-85
2021/08/29 04:26:28;;;;;;;23.07;20.87;;;;;;;;;;5034229;28;20446;-85
2021/08/29 04:28:55;;;;;;;21.83;19.83;;;;;;;;;;5034394;28;20422;-85
2021/08/29 04:31:25;;;;;;;24.03;21.83;;;;;;;;;;5034365;28;20422;-85
2021/08/29 04:33:52;;;;;;;23.57;21.37;;;;;;;;;;5033660;28;20488;-85
2021/08/29 04:36:19;;;;;;;21.57;19.63;;;;;;;;;;5033919;28;20415;-85
2021/08/29 04:38:47;;;;;;;23.40;21.20;;;;;;;;;;5033964;28;20418;-85
2021/08/29 04:41:16;;;;;;;21.83;19.73;;;;;;;;;;5034156;28;20443;-86
2021/08/29 04:43:43;;;;;;;22.93;20.70;;;;;;;;;;5034000;28;20797;-85
2021/08/29 04:46:14;;;;;;;19.93;18.20;;;;;;;;;;5033961;28;20790;-85
2021/08/29 04:48:42;;;;;;;19.47;17.77;;;;;;;;;;5033547;28;20851;-85
2021/08/29 04:51:09;;;;;;;16.80;15.60;;;;;;;;;;5034089;28;20816;-85
2021/08/29 04:53:36;;;;;;;18.40;16.97;;;;;;;;;;5034004;28;20910;-85
2021/08/29 04:56:04;;;;;;;19.60;18.10;;;;;;;;;;5034797;28;20751;-85
2021/08/29 04:58:33;;;;;;;16.83;15.63;;;;;;;;;;5034307;28;20415;-85
2021/08/29 05:01:00;;;;;;;18.73;17.13;;;;;;;;;;5034949;28;20421;-85
2021/08/29 05:03:27;;;;;;;18.97;17.57;;;;;;;;;;5038066;28;20769;-85
2021/08/29 05:05:55;;;;;;;18.37;17.03;;;;;;;;;;5038973;28;20780;-85
2021/08/29 05:08:22;;;;;;;17.93;16.63;;;;;;;;;;5042680;28;20438;-85
2021/08/29 05:10:49;;;;;;;16.70;15.60;;;;;;;;;;5039991;28;20505;-86
2021/08/29 05:13:17;;;;;;;19.17;17.47;;;;;;;;;;5041674;28;20432;-85
2021/08/29 05:15:46;;;;;;;17.13;15.83;;;;;;;;;;5038997;28;20931;-86
2021/08/29 05:18:13;;;;;;;15.30;14.40;;;;;;;;;;5034441;28;20439;-85
2021/08/29 05:20:41;;;;;;;15.10;14.10;;;;;;;;;;5033010;28;20904;-86
2021/08/29 05:23:08;;;;;;;14.43;13.70;;;;;;;;;;5033790;28;20921;-84
2021/08/29 05:25:35;;;;;;;12.87;12.20;;;;;;;;;;5016187;28;20806;-85
2021/08/29 05:28:03;;;;;;;13.53;12.73;;;;;;;;;;5033917;28;20422;-85
2021/08/29 05:30:30;;;;;;;13.73;13.03;;;;;;;;;;5032761;28;20479;-86
2021/08/29 05:32:59;;;;;;;14.20;13.40;;;;;;;;;;5033498;28;20479;-86
2021/08/29 05:35:26;;;;;;;11.97;11.40;;;;;;;;;;5036496;28;20436;-83
2021/08/29 05:37:54;;;;;;;12.30;11.60;;;;;;;;;;5036722;28;20786;-82
2021/08/29 05:40:22;;;;;;;11.97;11.47;;;;;;;;;;5036888;28;20432;-86
2021/08/29 05:42:49;;;;;;;12.20;11.60;;;;;;;;;;5036752;28;20410;-85
2021/08/29 05:45:16;;;;;;;12.60;12.00;;;;;;;;;;5037006;28;20426;-85
2021/08/29 05:47:44;;;;;;;12.90;12.30;;;;;;;;;;5036570;28;20447;-83
2021/08/29 05:50:12;;;;;;;12.97;12.30;;;;;;;;;;5036365;28;20474;-83
2021/08/29 05:52:40;;;;;;;12.97;12.27;;;;;;;;;;5040117;28;20929;-83
2021/08/29 05:55:08;;;;;;;13.23;12.60;;;;;;;;;;5039530;28;20421;-85
2021/08/29 05:57:35;;;;;;;13.20;12.60;;;;;;;;;;5036607;28;20402;-85
2021/08/29 06:00:03;;;;;;;12.70;12.10;;;;;;;;;;5036859;28;20426;-83
2021/08/29 06:02:30;;;;;;;12.40;11.80;;;;;;;;;;5036570;28;20436;-82
2021/08/29 06:04:57;;;;;;;13.77;13.00;;;;;;;;;;5036555;28;20440;-83
2021/08/29 06:07:26;;;;;;;13.87;13.07;;;;;;;;;;5036302;28;20450;-83
2021/08/29 06:09:54;;;;;;;15.27;14.43;;;;;;;;;;5035955;28;20475;-83
2021/08/29 06:12:21;;;;;;;13.60;12.90;;;;;;;;;;5036125;28;20792;-83
2021/08/29 06:14:48;;;;;;;13.20;12.50;;;;;;;;;;5036165;28;20444;-83
2021/08/29 06:17:16;;;;;;;13.50;12.87;;;;;;;;;;5036371;28;20444;-83
2021/08/29 06:19:43;;;;;;;12.03;11.47;;;;;;;;;;5036152;28;20784;-83
2021/08/29 06:22:10;;;;;;;13.93;13.13;;;;;;;;;;5036218;28;20854;-83
2021/08/29 06:24:39;;;;;;;12.27;11.67;;;;;;;;;;5035775;28;20443;-83
2021/08/29 06:27:07;;;;;;;13.10;12.40;;;;;;;;;;5035736;28;20471;-83
2021/08/29 06:29:34;;;;;;;12.37;11.77;;;;;;;;;;5035834;28;20439;-83
2021/08/29 06:32:02;;;;;;;11.50;11.00;;;;;;;;;;5035698;28;20418;-83
2021/08/29 06:34:29;;;;;;;12.00;11.50;;;;;;;;;;5036324;28;20886;-83
2021/08/29 06:36:56;;;;;;;11.90;11.40;;;;;;;;;;5034628;28;20899;-83
2021/08/29 06:39:24;;;;;;;12.00;11.40;;;;;;;;;;5035673;28;20443;-83
2021/08/29 06:41:53;;;;;;;11.10;10.60;;;;;;;;;;5035558;28;20414;-81
2021/08/29 06:44:20;;;;;;;12.37;11.77;;;;;;;;;;5035352;28;20434;-82
2021/08/29 06:46:48;;;;;;;11.87;11.30;;;;;;;;;;5036599;28;20406;-83
2021/08/29 06:49:15;;;;;;;10.73;10.27;;;;;;;;;;5035875;28;20418;-83
2021/08/29 06:51:42;;;;;;;12.10;11.50;;;;;;;;;;5035277;28;20486;-83
2021/08/29 06:54:10;;;;;;;11.80;11.33;;;;;;;;;;5035619;28;20785;-83
2021/08/29 06:56:37;;;;;;;10.77;10.27;;;;;;;;;;5035462;28;20403;-83
2021/08/29 06:59:06;;;;;;;10.80;10.40;;;;;;;;;;5035369;28;20421;-83
2021/08/29 07:01:33;;;;;;;10.30;9.90;;;;;;;;;;5035629;28;20439;-82
2021/08/29 07:04:01;;;;;;;11.13;10.73;;;;;;;;;;5036409;28;20446;-83
2021/08/29 07:06:28;;;;;;;10.33;9.93;;;;;;;;;;5035467;28;20446;-82
2021/08/29 07:08:56;;;;;;;10.80;10.30;;;;;;;;;;5036484;28;20427;-82
2021/08/29 07:11:23;;;;;;;10.63;10.23;;;;;;;;;;5036056;28;20494;-82
2021/08/29 07:13:50;;;;;;;10.70;10.10;;;;;;;;;;5035790;28;20927;-82
2021/08/29 07:16:19;;;;;;;10.00;9.60;;;;;;;;;;5035383;28;20434;-82
2021/08/29 07:18:47;;;;;;;11.33;10.73;;;;;;;;;;5035913;28;20411;-82
2021/08/29 07:21:14;;;;;;;10.80;10.30;;;;;;;;;;5035649;28;20417;-82
2021/08/29 07:23:42;;;;;;;10.30;9.80;;;;;;;;;;5035730;28;20788;-82
2021/08/29 07:26:13;;;;;;;9.30;9.00;;;;;;;;;;5039967;28;20828;-83
2021/08/29 07:28:41;;;;;;;11.40;10.80;;;;;;;;;;5037166;28;20511;-81
2021/08/29 07:31:08;;;;;;;9.83;9.30;;;;;;;;;;5035888;28;20462;-81
2021/08/29 07:33:37;;;;;;;10.37;9.97;;;;;;;;;;5040313;28;20548;-80
2021/08/29 07:36:05;;;;;;;9.50;9.10;;;;;;;;;;5037505;28;20440;-81
2021/08/29 07:38:32;;;;;;;9.60;9.30;;;;;;;;;;5035846;28;20952;-81
2021/08/29 07:41:00;;;;;;;9.73;9.33;;;;;;;;;;5037330;28;20440;-82
2021/08/29 07:43:32;;;;;;;9.30;9.00;;;;;;;;;;5038477;28;20440;-84
2021/08/29 07:46:05;;;;;;;9.93;9.57;;;;;;;;;;5039720;28;20419;-82
2021/08/29 07:48:32;;;;;;;10.80;10.40;;;;;;;;;;5038704;28;20519;-82
2021/08/29 07:51:01;;;;;;;9.63;9.33;;;;;;;;;;5037615;28;20480;-82
2021/08/29 07:53:29;;;;;;;10.43;10.03;;;;;;;;;;5040407;28;20418;-80
2021/08/29 07:55:56;;;;;;;10.33;9.93;;;;;;;;;;5040560;28;20449;-82
2021/08/29 07:58:24;;;;;;;9.63;9.33;;;;;;;;;;5040779;28;20418;-82
2021/08/29 08:00:51;;;;;;;9.80;9.50;;;;;;;;;;5041371;28;20432;-82
2021/08/29 08:03:19;;;;;;;11.10;10.60;;;;;;;;;;5039804;28;20422;-82
2021/08/29 08:05:46;;;;;;;9.40;9.10;;;;;;;;;;5037265;28;20903;-81
2021/08/29 08:08:19;;;;;;;10.53;10.13;;;;;;;;;;5041049;28;20444;-81
2021/08/29 08:10:58;;;;;;;9.53;9.20;;;;;;;;;;5039420;28;20459;-81
2021/08/29 08:13:26;;;;;;;10.00;9.60;;;;;;;;;;5039040;28;20427;-81
2021/08/29 08:15:54;;;;;;;10.20;9.80;;;;;;;;;;5040839;28;20495;-78
2021/08/29 08:18:22;;;;;;;10.73;10.27;;;;;;;;;;5043756;28;20440;-80
2021/08/29 08:20:49;;;;;;;10.13;9.73;;;;;;;;;;5039940;28;20526;-80
2021/08/29 08:23:16;;;;;;;9.40;9.10;;;;;;;;;;5040731;28;20408;-84
2021/08/29 08:25:45;;;;;;;10.03;9.63;;;;;;;;;;5039878;28;20776;-84
2021/08/29 08:28:13;;;;;;;9.90;9.50;;;;;;;;;;5039973;28;20447;-82
2021/08/29 08:30:43;;;;;;;10.13;9.73;;;;;;;;;;5043935;28;20476;-82
2021/08/29 08:33:11;;;;;;;9.60;9.30;;;;;;;;;;5039891;28;20471;-82
2021/08/29 08:35:38;;;;;;;9.90;9.50;;;;;;;;;;5043838;28;20440;-82
2021/08/29 08:38:06;;;;;;;8.97;8.67;;;;;;;;;;5041238;28;20438;-82
2021/08/29 08:40:38;;;;;;;8.40;8.10;;;;;;;;;;5040379;28;20440;-82
2021/08/29 08:43:10;;;;;;;8.30;8.00;;;;;;;;;;5042812;28;20436;-80
2021/08/29 08:45:38;;;;;;;8.77;8.47;;;;;;;;;;5042360;28;20785;-81
2021/08/29 08:48:08;;;;;;;8.73;8.43;;;;;;;;;;5044025;28;20512;-81
2021/08/29 08:50:38;;;;;;;8.53;8.23;;;;;;;;;;5043019;28;20798;-82
2021/08/29 08:53:10;;;;;;;9.10;8.60;;;;;;;;;;5038121;28;20414;-81
2021/08/29 08:55:47;;;;;;;8.83;8.53;;;;;;;;;;5046170;28;20422;-82
2021/08/29 08:58:20;;;;;;;8.73;8.43;;;;;;;;;;5043247;28;20434;-82
2021/08/29 09:00:48;;;;;;;9.50;9.10;;;;;;;;;;5040635;28;20430;-77
2021/08/29 09:03:17;;;;;;;9.30;8.97;;;;;;;;;;5035242;28;20474;-77
2021/08/29 09:05:45;;;;;;;9.83;9.43;;;;;;;;;;5034164;28;20435;-76
2021/08/29 09:08:13;;;;;;;10.70;10.30;;;;;;;;;;5035414;28;20447;-76
2021/08/29 09:10:40;;;;;;;10.07;9.67;;;;;;;;;;5038004;28;20406;-76
2021/08/29 09:13:07;;;;;;;10.40;9.70;;;;;;;;;;5037878;28;20452;-77
2021/08/29 09:15:39;;;;;;;10.80;10.30;;;;;;;;;;5040560;28;20440;-77
2021/08/29 09:18:10;;;;;;;10.30;9.90;;;;;;;;;;5039300;28;20468;-77
2021/08/29 09:20:39;;;;;;;9.53;9.13;;;;;;;;;;5039904;28;20430;-77
2021/08/29 09:23:09;;;;;;;9.47;9.07;;;;;;;;;;5039654;28;20418;-77
2021/08/29 09:25:43;;;;;;;10.30;9.90;;;;;;;;;;5039546;28;20416;-77
2021/08/29 09:28:11;;;;;;;9.90;9.40;;;;;;;;;;5040830;28;20435;-78
2021/08/29 09:30:42;;;;;;;10.10;9.70;;;;;;;;;;5040116;28;20439;-79
2021/08/29 09:33:11;;;;;;;11.10;10.60;;;;;;;;;;5038937;28;20503;-77
2021/08/29 09:35:40;;;;;;;9.63;9.23;;;;;;;;;;5042331;28;20528;-80
2021/08/29 09:38:08;;;;;;;10.17;9.67;;;;;;;;;;5039312;28;20509;-80
2021/08/29 09:40:37;;;;;;;9.67;9.27;;;;;;;;;;5040155;28;20796;-78
2021/08/29 09:43:05;;;;;;;9.77;9.30;;;;;;;;;;5042761;28;20432;-78
2021/08/29 09:45:35;;;;;;;10.03;9.60;;;;;;;;;;5040080;28;20439;-78
2021/08/29 09:48:05;;;;;;;9.67;9.27;;;;;;;;;;5037852;28;20434;-77
2021/08/29 09:50:34;;;;;;;10.57;10.07;;;;;;;;;;5040249;28;20486;-78
2021/08/29 09:53:02;;;;;;;10.80;10.20;;;;;;;;;;5039021;28;20458;-78
2021/08/29 09:55:31;;;;;;;10.77;10.17;;;;;;;;;;5040159;28;20439;-78
2021/08/29 09:57:58;;;;;;;9.43;9.03;;;;;;;;;;5038428;28;20418;-78
2021/08/29 10:00:26;;;;;;;10.00;9.50;;;;;;;;;;5038432;28;20441;-77
2021/08/29 10:03:08;;;;;;;9.37;8.90;;;;;;;;;;5039289;28;20437;-78
2021/08/29 10:05:36;;;;;;;8.10;7.80;;;;;;;;;;5041715;28;20425;-78
2021/08/29 10:08:06;;;;;;;9.20;8.80;;;;;;;;;;5037779;28;20479;-78
2021/08/29 10:10:37;;;;;;;9.47;9.07;;;;;;;;;;5037167;28;20453;-78
2021/08/29 10:13:05;;;;;;;9.73;9.33;;;;;;;;;;5037133;28;20483;-78
2021/08/29 10:15:33;;;;;;;9.47;9.00;;;;;;;;;;5036938;28;20433;-78
2021/08/29 10:18:01;;;;;;;9.67;9.07;;;;;;;;;;5037297;28;20437;-78
2021/08/29 10:20:31;;;;;;;9.80;9.30;;;;;;;;;;5036030;28;20451;-78
2021/08/29 10:22:59;;;;;;;9.30;8.90;;;;;;;;;;5035859;28;20920;-78
2021/08/29 10:25:27;;;;;;;8.03;7.73;;;;;;;;;;5035936;28;20436;-78
2021/08/29 10:28:01;;;;;;;8.67;8.27;;;;;;;;;;5036062;28;20443;-78
2021/08/29 10:30:29;;;;;;;8.90;8.50;;;;;;;;;;5036188;28;20434;-78
2021/08/29 10:32:59;;;;;;;8.83;8.43;;;;;;;;;;5037079;28;20567;-77
2021/08/29 10:35:26;;;;;;;8.37;7.97;;;;;;;;;;5038578;28;20444;-77
2021/08/29 10:37:58;;;;;;;9.03;8.63;;;;;;;;;;5039278;28;20441;-78
2021/08/29 10:40:26;;;;;;;9.10;8.60;;;;;;;;;;5041882;28;20822;-78
2021/08/29 10:42:55;;;;;;;8.70;8.30;;;;;;;;;;5039279;28;20439;-80
2021/08/29 10:45:22;;;;;;;8.73;8.33;;;;;;;;;;5037980;28;20435;-78
2021/08/29 10:47:50;;;;;;;9.57;9.17;;;;;;;;;;5038978;28;20757;-80
2021/08/29 10:50:18;;;;;;;8.83;8.33;;;;;;;;;;5037338;28;20414;-80
2021/08/29 10:52:46;;;;;;;9.47;8.97;;;;;;;;;;5039792;28;20553;-81
2021/08/29 10:55:18;;;;;;;9.60;9.00;;;;;;;;;;5038544;28;20903;-79
2021/08/29 10:57:47;;;;;;;8.70;8.30;;;;;;;;;;5040777;28;20445;-80
2021/08/29 11:00:17;;;;;;;8.57;8.17;;;;;;;;;;5040802;28;20442;-79
2021/08/29 11:02:45;;;;;;;7.70;7.30;;;;;;;;;;5041789;28;20927;-84
2021/08/29 11:05:15;;;;;;;8.50;8.10;;;;;;;;;;5040448;28;20904;-81
2021/08/29 11:07:46;;;;;;;8.10;7.70;;;;;;;;;;5040413;28;20450;-81
2021/08/29 11:10:35;;;;;;;7.87;7.57;;;;;;;;;;5060290;28;20444;-80
2021/08/29 11:13:33;;;;;;;9.07;8.57;;;;;;;;;;5058215;28;20825;-80
2021/08/29 11:16:18;;;;;;;10.47;9.87;;;;;;;;;;5059921;28;20445;-80
2021/08/29 11:19:05;;;;;;;9.83;9.30;;;;;;;;;;5060874;28;20466;-80
2021/08/29 11:22:08;;;;;;;10.17;9.50;;;;;;;;;;5060804;28;20859;-79
2021/08/29 11:24:49;;;;;;;10.73;10.13;;;;;;;;;;5059004;28;20461;-77
2021/08/29 11:27:36;;;;;;;10.30;9.70;;;;;;;;;;5058540;28;20923;-81
2021/08/29 11:30:09;;;;;;;9.93;9.37;;;;;;;;;;5059834;28;20459;-79
2021/08/29 11:32:39;;;;;;;10.63;10.00;;;;;;;;;;5052713;28;20990;-82
2021/08/29 11:35:09;;;;;;;11.80;11.07;;;;;;;;;;5039526;28;20487;-79
2021/08/29 11:37:37;;;;;;;11.33;10.63;;;;;;;;;;5038538;28;20456;-79
2021/08/29 11:40:06;;;;;;;11.37;10.67;;;;;;;;;;5043431;28;20869;-80
2021/08/29 11:42:36;;;;;;;12.20;11.50;;;;;;;;;;5037165;28;20450;-80
2021/08/29 11:45:06;;;;;;;11.70;11.00;;;;;;;;;;5035998;28;20921;-81
2021/08/29 11:47:40;;;;;;;12.73;11.83;;;;;;;;;;5038100;28;20430;-80
2021/08/29 11:50:09;;;;;;;14.13;13.17;;;;;;;;;;5038018;28;20407;-79
2021/08/29 11:52:39;;;;;;;13.50;12.60;;;;;;;;;;5038522;28;20454;-80
2021/08/29 11:55:09;;;;;;;12.23;11.43;;;;;;;;;;5040370;28;20436;-81
2021/08/29 11:57:49;;;;;;;11.80;11.00;;;;;;;;;;5041253;28;20917;-79
2021/08/29 12:00:25;;;;;;;11.67;10.87;;;;;;;;;;5045554;28;20449;-80
2021/08/29 12:02:53;;;;;;;11.57;10.87;;;;;;;;;;5039770;28;20459;-81
2021/08/29 12:05:22;;;;;;;11.50;10.70;;;;;;;;;;5041330;28;20431;-80
2021/08/29 12:07:55;;;;;;;11.63;10.90;;;;;;;;;;5041210;28;20469;-82
2021/08/29 12:10:25;;;;;;;12.53;11.67;;;;;;;;;;5038008;28;20434;-81
2021/08/29 12:12:53;;;;;;;13.67;12.67;;;;;;;;;;5037169;28;20464;-80
2021/08/29 12:15:25;;;;;;;14.00;13.00;;;;;;;;;;5038817;28;20456;-80
2021/08/29 12:17:56;;;;;;;14.80;13.50;;;;;;;;;;5038406;28;20432;-80
2021/08/29 12:20:25;;;;;;;15.10;13.97;;;;;;;;;;5037490;28;20430;-80
2021/08/29 12:22:53;;;;;;;14.20;13.10;;;;;;;;;;5036586;28;20456;-80
2021/08/29 12:25:23;;;;;;;15.00;13.50;;;;;;;;;;5036938;28;20434;-80
2021/08/29 12:27:51;;;;;;;15.10;14.00;;;;;;;;;;5035636;28;20915;-80
2021/08/29 12:30:21;;;;;;;14.80;13.70;;;;;;;;;;5035905;28;20474;-80
2021/08/29 12:32:50;;;;;;;14.40;13.20;;;;;;;;;;5045001;28;20509;-80
2021/08/29 12:35:18;;;;;;;12.90;12.00;;;;;;;;;;5059249;28;20438;-80
2021/08/29 12:37:46;;;;;;;13.50;12.57;;;;;;;;;;5060977;28;20477;-80
2021/08/29 12:40:16;;;;;;;12.90;11.90;;;;;;;;;;5082608;28;20408;-80
2021/08/29 12:42:44;;;;;;;13.57;12.33;;;;;;;;;;5079882;28;20828;-80
2021/08/29 12:45:13;;;;;;;13.70;12.70;;;;;;;;;;5082460;28;20462;-80
2021/08/29 12:47:41;;;;;;;14.63;13.33;;;;;;;;;;5079075;28;20891;-80
2021/08/29 12:50:12;;;;;;;15.50;14.20;;;;;;;;;;5078015;28;20434;-78
2021/08/29 12:52:41;;;;;;;14.97;13.77;;;;;;;;;;5079237;28;20479;-79
2021/08/29 12:55:11;;;;;;;13.47;12.47;;;;;;;;;;5080012;28;20533;-78
2021/08/29 12:57:39;;;;;;;13.13;12.23;;;;;;;;;;5079068;28;20412;-79
2021/08/29 13:00:07;;;;;;;14.70;13.60;;;;;;;;;;5080728;28;20441;-79
2021/08/29 13:02:39;;;;;;;14.50;13.50;;;;;;;;;;5079428;28;20852;-79
2021/08/29 13:05:07;;;;;;;15.00;13.90;;;;;;;;;;5080430;28;20434;-80
2021/08/29 13:07:48;;;;;;;14.13;13.13;;;;;;;;;;5074076;28;20436;-80
2021/08/29 13:10:16;;;;;;;13.67;12.57;;;;;;;;;;5063524;28;20463;-79
2021/08/29 13:12:43;;;;;;;14.20;13.10;;;;;;;;;;5063208;28;20474;-77
2021/08/29 13:15:11;;;;;;;13.97;12.97;;;;;;;;;;5069424;28;20439;-79
2021/08/29 13:17:46;;;;;;;14.80;13.73;;;;;;;;;;5064136;28;20447;-79
2021/08/29 13:20:13;;;;;;;14.70;13.60;;;;;;;;;;5068087;28;20823;-80
2021/08/29 13:22:42;;;;;;;14.30;13.30;;;;;;;;;;5043366;28;20440;-79
2021/08/29 13:25:21;;;;;;;15.20;14.03;;;;;;;;;;5067399;28;20914;-79
2021/08/29 13:27:50;;;;;;;14.60;13.40;;;;;;;;;;5064829;28;20433;-81
2021/08/29 13:30:21;;;;;;;15.07;13.73;;;;;;;;;;5074756;28;20442;-80
2021/08/29 13:32:48;;;;;;;15.40;14.20;;;;;;;;;;5062219;28;20812;-80
2021/08/29 13:35:17;;;;;;;15.17;14.07;;;;;;;;;;5056451;28;20416;-80
2021/08/29 13:37:46;;;;;;;15.90;14.70;;;;;;;;;;5038276;28;20451;-80
2021/08/29 13:40:14;;;;;;;14.50;13.40;;;;;;;;;;5056705;28;20440;-81
2021/08/29 13:43:03;;;;;;;14.83;13.83;;;;;;;;;;5058217;28;20479;-80
2021/08/29 13:45:31;;;;;;;14.33;13.37;;;;;;;;;;5016622;28;20424;-81
2021/08/29 13:48:00;;;;;;;14.50;13.60;;;;;;;;;;5016295;28;20472;-80
2021/08/29 13:50:28;;;;;;;13.57;12.77;;;;;;;;;;5016534;28;20457;-80
2021/08/29 13:53:02;;;;;;;13.67;12.77;;;;;;;;;;5016319;28;20453;-80
2021/08/29 13:55:30;;;;;;;14.20;13.20;;;;;;;;;;5016434;28;20446;-80
2021/08/29 13:57:59;;;;;;;12.27;11.57;;;;;;;;;;5016909;28;20455;-80
2021/08/29 14:00:26;;;;;;;13.63;12.73;;;;;;;;;;5018526;28;20427;-80
2021/08/29 14:02:54;;;;;;;14.07;12.87;;;;;;;;;;5025259;28;20418;-80
2021/08/29 14:05:22;;;;;;;13.70;12.90;;;;;;;;;;5059127;28;20469;-79
2021/08/29 14:07:49;;;;;;;14.30;13.40;;;;;;;;;;5061791;28;20413;-79
2021/08/29 14:10:20;;;;;;;14.30;13.50;;;;;;;;;;5058807;28;20961;-80
2021/08/29 14:12:50;;;;;;;14.77;13.87;;;;;;;;;;5058443;28;20492;-80
2021/08/29 14:15:19;;;;;;;15.47;14.40;;;;;;;;;;5060034;28;20794;-80
2021/08/29 14:17:47;;;;;;;15.07;14.03;;;;;;;;;;5057297;28;20428;-79
2021/08/29 14:20:16;;;;;;;14.20;13.30;;;;;;;;;;5059773;28;20414;-80
2021/08/29 14:22:43;;;;;;;15.10;14.10;;;;;;;;;;5059956;28;20790;-79
2021/08/29 14:25:13;;;;;;;16.00;14.80;;;;;;;;;;5058355;28;20786;-83
2021/08/29 14:27:41;;;;;;;14.47;13.37;;;;;;;;;;5061661;28;20418;-81
2021/08/29 14:30:11;;;;;;;13.60;12.70;;;;;;;;;;5060728;28;20432;-81
2021/08/29 14:32:44;;;;;;;14.70;13.80;;;;;;;;;;5053493;28;20492;-80
2021/08/29 14:35:15;;;;;;;13.70;12.80;;;;;;;;;;5041170;28;20422;-80